sensor_id;sensor_type;location;lat;lon;timestamp;P1;durP1;ratioP1;P2;durP2;ratioP2
24273;SDS011;12392;42.678;23.380;2024-03-17T00:01:50;23.35;;;13.73;;
24273;SDS011;12392;42.678;23.380;2024-03-17T00:04:15;22.25;;;13.05;;
24273;SDS011;12392;42.678;23.380;2024-03-17T00:06:41;22.40;;;13.93;;
24273;SDS011;12392;42.678;23.380;2024-03-17T00:09:08;22.15;;;13.73;;
24273;SDS011;12392;42.678;23.380;2024-03-17T00:11:34;23.00;;;14.48;;
24273;SDS011;12392;42.678;23.380;2024-03-17T00:14:03;20.83;;;14.15;;
24273;SDS011;12392;42.678;23.380;2024-03-17T00:16:30;25.50;;;14.20;;
24273;SDS011;12392;42.678;23.380;2024-03-17T00:18:56;22.25;;;12.93;;
24273;SDS011;12392;42.678;23.380;2024-03-17T00:21:22;21.10;;;12.85;;
24273;SDS011;12392;42.678;23.380;2024-03-17T00:23:48;21.48;;;12.95;;
24273;SDS011;12392;42.678;23.380;2024-03-17T00:26:17;22.05;;;12.93;;
24273;SDS011;12392;42.678;23.380;2024-03-17T00:28:44;22.60;;;12.32;;
24273;SDS011;12392;42.678;23.380;2024-03-17T00:31:13;20.85;;;12.52;;
24273;SDS011;12392;42.678;23.380;2024-03-17T00:33:40;19.25;;;11.77;;
24273;SDS011;12392;42.678;23.380;2024-03-17T00:36:06;19.27;;;11.98;;
24273;SDS011;12392;42.678;23.380;2024-03-17T00:38:32;22.23;;;13.52;;
24273;SDS011;12392;42.678;23.380;2024-03-17T00:40:58;22.40;;;11.68;;
24273;SDS011;12392;42.678;23.380;2024-03-17T00:43:24;21.05;;;12.30;;
24273;SDS011;12392;42.678;23.380;2024-03-17T00:45:53;24.65;;;12.55;;
24273;SDS011;12392;42.678;23.380;2024-03-17T00:48:18;18.80;;;11.05;;
24273;SDS011;12392;42.678;23.380;2024-03-17T00:50:44;21.45;;;12.43;;
24273;SDS011;12392;42.678;23.380;2024-03-17T00:53:13;18.33;;;11.77;;
24273;SDS011;12392;42.678;23.380;2024-03-17T00:55:39;21.45;;;12.65;;
24273;SDS011;12392;42.678;23.380;2024-03-17T00:58:04;22.08;;;13.45;;
24273;SDS011;12392;42.678;23.380;2024-03-17T01:00:31;23.15;;;13.18;;
24273;SDS011;12392;42.678;23.380;2024-03-17T01:02:58;22.73;;;13.63;;
24273;SDS011;12392;42.678;23.380;2024-03-17T01:05:24;24.73;;;12.90;;
24273;SDS011;12392;42.678;23.380;2024-03-17T01:07:49;23.65;;;13.52;;
24273;SDS011;12392;42.678;23.380;2024-03-17T01:10:15;25.02;;;14.60;;
24273;SDS011;12392;42.678;23.380;2024-03-17T01:12:41;24.48;;;14.23;;
24273;SDS011;12392;42.678;23.380;2024-03-17T01:15:07;30.02;;;14.02;;
24273;SDS011;12392;42.678;23.380;2024-03-17T01:17:33;31.73;;;14.77;;
24273;SDS011;12392;42.678;23.380;2024-03-17T01:19:59;26.80;;;15.50;;
24273;SDS011;12392;42.678;23.380;2024-03-17T01:22:24;25.40;;;15.85;;
24273;SDS011;12392;42.678;23.380;2024-03-17T01:24:50;27.17;;;15.60;;
24273;SDS011;12392;42.678;23.380;2024-03-17T01:27:16;23.50;;;14.13;;
24273;SDS011;12392;42.678;23.380;2024-03-17T01:29:44;27.40;;;15.65;;
24273;SDS011;12392;42.678;23.380;2024-03-17T01:32:10;27.33;;;15.93;;
24273;SDS011;12392;42.678;23.380;2024-03-17T01:34:39;30.73;;;16.17;;
24273;SDS011;12392;42.678;23.380;2024-03-17T01:37:05;26.48;;;16.00;;
24273;SDS011;12392;42.678;23.380;2024-03-17T01:39:31;24.45;;;15.35;;
24273;SDS011;12392;42.678;23.380;2024-03-17T01:41:57;28.70;;;15.95;;
24273;SDS011;12392;42.678;23.380;2024-03-17T01:44:25;31.30;;;16.92;;
24273;SDS011;12392;42.678;23.380;2024-03-17T01:46:52;30.90;;;16.05;;
24273;SDS011;12392;42.678;23.380;2024-03-17T01:49:18;33.22;;;15.73;;
24273;SDS011;12392;42.678;23.380;2024-03-17T01:51:46;31.10;;;16.45;;
24273;SDS011;12392;42.678;23.380;2024-03-17T01:54:12;31.63;;;16.45;;
24273;SDS011;12392;42.678;23.380;2024-03-17T01:56:38;31.33;;;16.50;;
24273;SDS011;12392;42.678;23.380;2024-03-17T01:59:05;28.23;;;15.93;;
24273;SDS011;12392;42.678;23.380;2024-03-17T02:01:37;33.67;;;16.88;;
24273;SDS011;12392;42.678;23.380;2024-03-17T02:04:04;37.75;;;17.60;;
24273;SDS011;12392;42.678;23.380;2024-03-17T02:06:30;36.40;;;16.80;;
24273;SDS011;12392;42.678;23.380;2024-03-17T02:08:56;35.83;;;16.60;;
24273;SDS011;12392;42.678;23.380;2024-03-17T02:11:26;30.42;;;16.05;;
24273;SDS011;12392;42.678;23.380;2024-03-17T02:13:53;28.75;;;16.85;;
24273;SDS011;12392;42.678;23.380;2024-03-17T02:16:20;34.15;;;18.35;;
24273;SDS011;12392;42.678;23.380;2024-03-17T02:18:46;25.38;;;14.15;;
24273;SDS011;12392;42.678;23.380;2024-03-17T02:21:12;33.03;;;14.90;;
24273;SDS011;12392;42.678;23.380;2024-03-17T02:23:39;32.88;;;15.73;;
24273;SDS011;12392;42.678;23.380;2024-03-17T02:26:04;29.70;;;18.17;;
24273;SDS011;12392;42.678;23.380;2024-03-17T02:28:37;29.40;;;16.88;;
24273;SDS011;12392;42.678;23.380;2024-03-17T02:31:04;35.30;;;18.42;;
24273;SDS011;12392;42.678;23.380;2024-03-17T02:33:32;38.97;;;19.15;;
24273;SDS011;12392;42.678;23.380;2024-03-17T02:35:58;36.67;;;19.75;;
24273;SDS011;12392;42.678;23.380;2024-03-17T02:38:24;38.47;;;19.08;;
24273;SDS011;12392;42.678;23.380;2024-03-17T02:41:09;30.85;;;18.88;;
24273;SDS011;12392;42.678;23.380;2024-03-17T02:43:34;35.13;;;18.77;;
24273;SDS011;12392;42.678;23.380;2024-03-17T02:46:01;37.15;;;18.25;;
24273;SDS011;12392;42.678;23.380;2024-03-17T02:48:29;26.00;;;13.93;;
24273;SDS011;12392;42.678;23.380;2024-03-17T02:50:55;37.42;;;15.85;;
24273;SDS011;12392;42.678;23.380;2024-03-17T02:53:21;51.38;;;20.17;;
24273;SDS011;12392;42.678;23.380;2024-03-17T02:55:47;36.95;;;20.15;;
24273;SDS011;12392;42.678;23.380;2024-03-17T02:58:13;33.53;;;17.38;;
24273;SDS011;12392;42.678;23.380;2024-03-17T03:00:38;36.53;;;18.50;;
24273;SDS011;12392;42.678;23.380;2024-03-17T03:03:05;36.72;;;18.02;;
24273;SDS011;12392;42.678;23.380;2024-03-17T03:05:31;41.45;;;18.20;;
24273;SDS011;12392;42.678;23.380;2024-03-17T03:07:56;38.83;;;17.40;;
24273;SDS011;12392;42.678;23.380;2024-03-17T03:10:22;36.28;;;18.20;;
24273;SDS011;12392;42.678;23.380;2024-03-17T03:12:48;41.42;;;21.27;;
24273;SDS011;12392;42.678;23.380;2024-03-17T03:15:14;43.55;;;20.52;;
24273;SDS011;12392;42.678;23.380;2024-03-17T03:17:40;37.92;;;17.73;;
24273;SDS011;12392;42.678;23.380;2024-03-17T03:20:05;33.03;;;17.38;;
24273;SDS011;12392;42.678;23.380;2024-03-17T03:22:32;33.50;;;19.63;;
24273;SDS011;12392;42.678;23.380;2024-03-17T03:24:57;33.53;;;16.58;;
24273;SDS011;12392;42.678;23.380;2024-03-17T03:27:23;33.33;;;16.60;;
24273;SDS011;12392;42.678;23.380;2024-03-17T03:29:49;32.10;;;17.20;;
24273;SDS011;12392;42.678;23.380;2024-03-17T03:32:15;34.38;;;18.38;;
24273;SDS011;12392;42.678;23.380;2024-03-17T03:34:42;35.80;;;17.92;;
24273;SDS011;12392;42.678;23.380;2024-03-17T03:37:08;34.92;;;19.02;;
24273;SDS011;12392;42.678;23.380;2024-03-17T03:39:36;37.70;;;20.20;;
24273;SDS011;12392;42.678;23.380;2024-03-17T03:42:01;39.13;;;20.10;;
24273;SDS011;12392;42.678;23.380;2024-03-17T03:44:27;39.53;;;21.58;;
24273;SDS011;12392;42.678;23.380;2024-03-17T03:46:53;41.75;;;22.88;;
24273;SDS011;12392;42.678;23.380;2024-03-17T03:49:23;42.60;;;24.30;;
24273;SDS011;12392;42.678;23.380;2024-03-17T03:51:50;46.22;;;26.88;;
24273;SDS011;12392;42.678;23.380;2024-03-17T03:54:15;54.05;;;31.33;;
24273;SDS011;12392;42.678;23.380;2024-03-17T03:56:41;67.47;;;37.53;;
24273;SDS011;12392;42.678;23.380;2024-03-17T03:59:07;84.88;;;47.80;;
24273;SDS011;12392;42.678;23.380;2024-03-17T04:01:32;101.25;;;50.00;;
24273;SDS011;12392;42.678;23.380;2024-03-17T04:03:58;87.63;;;41.50;;
24273;SDS011;12392;42.678;23.380;2024-03-17T04:06:24;75.88;;;39.65;;
24273;SDS011;12392;42.678;23.380;2024-03-17T04:08:49;67.75;;;33.70;;
24273;SDS011;12392;42.678;23.380;2024-03-17T04:11:15;85.93;;;40.97;;
24273;SDS011;12392;42.678;23.380;2024-03-17T04:13:41;81.88;;;44.85;;
24273;SDS011;12392;42.678;23.380;2024-03-17T04:16:07;68.90;;;35.47;;
24273;SDS011;12392;42.678;23.380;2024-03-17T04:18:33;67.53;;;33.58;;
24273;SDS011;12392;42.678;23.380;2024-03-17T04:21:03;74.30;;;35.38;;
24273;SDS011;12392;42.678;23.380;2024-03-17T04:23:31;60.38;;;32.60;;
24273;SDS011;12392;42.678;23.380;2024-03-17T04:25:57;63.38;;;31.42;;
24273;SDS011;12392;42.678;23.380;2024-03-17T04:28:23;63.10;;;32.00;;
24273;SDS011;12392;42.678;23.380;2024-03-17T04:30:48;60.58;;;30.50;;
24273;SDS011;12392;42.678;23.380;2024-03-17T04:33:14;72.40;;;31.38;;
24273;SDS011;12392;42.678;23.380;2024-03-17T04:35:41;52.17;;;28.85;;
24273;SDS011;12392;42.678;23.380;2024-03-17T04:38:07;67.00;;;27.90;;
24273;SDS011;12392;42.678;23.380;2024-03-17T04:40:34;65.22;;;27.10;;
24273;SDS011;12392;42.678;23.380;2024-03-17T04:43:00;63.70;;;26.48;;
24273;SDS011;12392;42.678;23.380;2024-03-17T04:45:26;55.10;;;26.83;;
24273;SDS011;12392;42.678;23.380;2024-03-17T04:47:52;54.65;;;26.75;;
24273;SDS011;12392;42.678;23.380;2024-03-17T04:50:18;63.25;;;26.13;;
24273;SDS011;12392;42.678;23.380;2024-03-17T04:52:44;50.78;;;24.00;;
24273;SDS011;12392;42.678;23.380;2024-03-17T04:55:10;52.08;;;25.20;;
24273;SDS011;12392;42.678;23.380;2024-03-17T04:57:35;48.53;;;23.02;;
24273;SDS011;12392;42.678;23.380;2024-03-17T05:00:02;46.20;;;21.45;;
24273;SDS011;12392;42.678;23.380;2024-03-17T05:02:32;46.70;;;22.33;;
24273;SDS011;12392;42.678;23.380;2024-03-17T05:04:58;41.97;;;22.10;;
24273;SDS011;12392;42.678;23.380;2024-03-17T05:07:24;29.15;;;16.65;;
24273;SDS011;12392;42.678;23.380;2024-03-17T05:09:49;30.20;;;16.25;;
24273;SDS011;12392;42.678;23.380;2024-03-17T05:12:15;32.33;;;17.85;;
24273;SDS011;12392;42.678;23.380;2024-03-17T05:14:41;42.80;;;20.42;;
24273;SDS011;12392;42.678;23.380;2024-03-17T05:17:07;32.95;;;18.45;;
24273;SDS011;12392;42.678;23.380;2024-03-17T05:19:33;36.22;;;19.60;;
24273;SDS011;12392;42.678;23.380;2024-03-17T05:21:58;29.92;;;18.67;;
24273;SDS011;12392;42.678;23.380;2024-03-17T05:24:25;29.83;;;16.90;;
24273;SDS011;12392;42.678;23.380;2024-03-17T05:26:51;35.75;;;18.67;;
24273;SDS011;12392;42.678;23.380;2024-03-17T05:29:17;33.90;;;18.67;;
24273;SDS011;12392;42.678;23.380;2024-03-17T05:31:42;34.17;;;18.80;;
24273;SDS011;12392;42.678;23.380;2024-03-17T05:34:08;29.45;;;16.50;;
24273;SDS011;12392;42.678;23.380;2024-03-17T05:36:35;36.67;;;18.77;;
24273;SDS011;12392;42.678;23.380;2024-03-17T05:39:02;28.75;;;17.30;;
24273;SDS011;12392;42.678;23.380;2024-03-17T05:41:28;34.22;;;15.82;;
24273;SDS011;12392;42.678;23.380;2024-03-17T05:43:53;30.30;;;17.30;;
24273;SDS011;12392;42.678;23.380;2024-03-17T05:46:23;30.30;;;16.17;;
24273;SDS011;12392;42.678;23.380;2024-03-17T05:48:49;28.48;;;16.80;;
24273;SDS011;12392;42.678;23.380;2024-03-17T05:51:14;29.63;;;15.82;;
24273;SDS011;12392;42.678;23.380;2024-03-17T05:53:41;27.77;;;16.52;;
24273;SDS011;12392;42.678;23.380;2024-03-17T05:56:09;28.13;;;16.65;;
24273;SDS011;12392;42.678;23.380;2024-03-17T05:58:36;25.60;;;15.48;;
24273;SDS011;12392;42.678;23.380;2024-03-17T06:01:02;25.27;;;15.38;;
24273;SDS011;12392;42.678;23.380;2024-03-17T06:03:28;31.35;;;18.67;;
24273;SDS011;12392;42.678;23.380;2024-03-17T06:05:54;40.47;;;23.45;;
24273;SDS011;12392;42.678;23.380;2024-03-17T06:08:19;44.60;;;27.73;;
24273;SDS011;12392;42.678;23.380;2024-03-17T06:10:46;36.25;;;22.10;;
24273;SDS011;12392;42.678;23.380;2024-03-17T06:13:13;31.42;;;19.50;;
24273;SDS011;12392;42.678;23.380;2024-03-17T06:15:40;28.90;;;17.48;;
24273;SDS011;12392;42.678;23.380;2024-03-17T06:18:06;29.40;;;16.75;;
24273;SDS011;12392;42.678;23.380;2024-03-17T06:20:34;28.88;;;16.27;;
24273;SDS011;12392;42.678;23.380;2024-03-17T06:23:00;29.13;;;17.42;;
24273;SDS011;12392;42.678;23.380;2024-03-17T06:25:26;34.08;;;20.40;;
24273;SDS011;12392;42.678;23.380;2024-03-17T06:27:53;38.83;;;24.42;;
24273;SDS011;12392;42.678;23.380;2024-03-17T06:30:19;37.63;;;24.35;;
24273;SDS011;12392;42.678;23.380;2024-03-17T06:32:46;44.13;;;24.60;;
24273;SDS011;12392;42.678;23.380;2024-03-17T06:35:12;41.45;;;25.88;;
24273;SDS011;12392;42.678;23.380;2024-03-17T06:37:43;35.20;;;21.42;;
24273;SDS011;12392;42.678;23.380;2024-03-17T06:40:12;35.58;;;21.08;;
24273;SDS011;12392;42.678;23.380;2024-03-17T06:42:39;28.58;;;18.40;;
24273;SDS011;12392;42.678;23.380;2024-03-17T06:45:05;32.42;;;19.00;;
24273;SDS011;12392;42.678;23.380;2024-03-17T06:47:33;31.25;;;19.58;;
24273;SDS011;12392;42.678;23.380;2024-03-17T06:50:00;34.35;;;20.23;;
24273;SDS011;12392;42.678;23.380;2024-03-17T06:52:26;30.98;;;21.05;;
24273;SDS011;12392;42.678;23.380;2024-03-17T06:54:51;33.05;;;20.63;;
24273;SDS011;12392;42.678;23.380;2024-03-17T06:57:17;33.88;;;21.13;;
24273;SDS011;12392;42.678;23.380;2024-03-17T06:59:43;29.60;;;19.73;;
24273;SDS011;12392;42.678;23.380;2024-03-17T07:02:09;31.77;;;19.88;;
24273;SDS011;12392;42.678;23.380;2024-03-17T07:04:37;31.02;;;19.35;;
24273;SDS011;12392;42.678;23.380;2024-03-17T07:07:03;36.47;;;20.27;;
24273;SDS011;12392;42.678;23.380;2024-03-17T07:09:29;36.38;;;19.00;;
24273;SDS011;12392;42.678;23.380;2024-03-17T07:11:54;31.73;;;19.83;;
24273;SDS011;12392;42.678;23.380;2024-03-17T07:14:20;34.40;;;17.85;;
24273;SDS011;12392;42.678;23.380;2024-03-17T07:16:46;32.13;;;19.63;;
24273;SDS011;12392;42.678;23.380;2024-03-17T07:19:11;32.25;;;18.75;;
24273;SDS011;12392;42.678;23.380;2024-03-17T07:21:37;28.50;;;18.25;;
24273;SDS011;12392;42.678;23.380;2024-03-17T07:24:02;27.92;;;18.17;;
24273;SDS011;12392;42.678;23.380;2024-03-17T07:26:29;27.02;;;18.08;;
24273;SDS011;12392;42.678;23.380;2024-03-17T07:28:55;24.52;;;17.42;;
24273;SDS011;12392;42.678;23.380;2024-03-17T07:31:21;30.23;;;17.92;;
24273;SDS011;12392;42.678;23.380;2024-03-17T07:33:47;25.45;;;17.63;;
24273;SDS011;12392;42.678;23.380;2024-03-17T07:36:14;31.60;;;19.33;;
24273;SDS011;12392;42.678;23.380;2024-03-17T07:38:40;28.20;;;18.15;;
24273;SDS011;12392;42.678;23.380;2024-03-17T07:41:06;30.40;;;18.67;;
24273;SDS011;12392;42.678;23.380;2024-03-17T07:43:34;34.08;;;18.95;;
24273;SDS011;12392;42.678;23.380;2024-03-17T07:46:01;28.13;;;16.90;;
24273;SDS011;12392;42.678;23.380;2024-03-17T07:48:29;25.25;;;15.95;;
24273;SDS011;12392;42.678;23.380;2024-03-17T07:50:59;30.35;;;19.48;;
24273;SDS011;12392;42.678;23.380;2024-03-17T07:53:27;30.00;;;17.80;;
24273;SDS011;12392;42.678;23.380;2024-03-17T07:56:06;24.50;;;15.90;;
24273;SDS011;12392;42.678;23.380;2024-03-17T07:58:34;23.45;;;15.75;;
24273;SDS011;12392;42.678;23.380;2024-03-17T08:01:01;26.38;;;15.00;;
24273;SDS011;12392;42.678;23.380;2024-03-17T08:03:28;23.27;;;13.88;;
24273;SDS011;12392;42.678;23.380;2024-03-17T08:05:55;26.88;;;14.40;;
24273;SDS011;12392;42.678;23.380;2024-03-17T08:08:21;24.80;;;13.68;;
24273;SDS011;12392;42.678;23.380;2024-03-17T08:10:46;26.35;;;14.23;;
24273;SDS011;12392;42.678;23.380;2024-03-17T08:13:13;20.88;;;13.75;;
24273;SDS011;12392;42.678;23.380;2024-03-17T08:15:41;26.17;;;13.15;;
24273;SDS011;12392;42.678;23.380;2024-03-17T08:18:08;17.08;;;12.05;;
24273;SDS011;12392;42.678;23.380;2024-03-17T08:20:37;19.20;;;12.73;;
24273;SDS011;12392;42.678;23.380;2024-03-17T08:23:04;17.95;;;11.13;;
24273;SDS011;12392;42.678;23.380;2024-03-17T08:25:31;17.33;;;11.48;;
24273;SDS011;12392;42.678;23.380;2024-03-17T08:27:57;20.20;;;11.57;;
24273;SDS011;12392;42.678;23.380;2024-03-17T08:30:22;17.80;;;11.73;;
24273;SDS011;12392;42.678;23.380;2024-03-17T08:32:48;19.70;;;11.82;;
24273;SDS011;12392;42.678;23.380;2024-03-17T08:35:14;16.02;;;10.90;;
24273;SDS011;12392;42.678;23.380;2024-03-17T08:37:39;18.23;;;11.32;;
24273;SDS011;12392;42.678;23.380;2024-03-17T08:40:05;16.25;;;11.30;;
24273;SDS011;12392;42.678;23.380;2024-03-17T08:42:32;16.42;;;12.02;;
24273;SDS011;12392;42.678;23.380;2024-03-17T08:44:58;16.15;;;11.15;;
24273;SDS011;12392;42.678;23.380;2024-03-17T08:47:23;18.35;;;11.65;;
24273;SDS011;12392;42.678;23.380;2024-03-17T08:49:52;21.00;;;10.75;;
24273;SDS011;12392;42.678;23.380;2024-03-17T08:52:17;15.20;;;10.48;;
24273;SDS011;12392;42.678;23.380;2024-03-17T08:54:46;15.85;;;10.65;;
24273;SDS011;12392;42.678;23.380;2024-03-17T08:57:12;15.93;;;10.25;;
24273;SDS011;12392;42.678;23.380;2024-03-17T08:59:39;12.30;;;9.35;;
24273;SDS011;12392;42.678;23.380;2024-03-17T09:02:05;16.63;;;9.85;;
24273;SDS011;12392;42.678;23.380;2024-03-17T09:04:31;14.57;;;9.32;;
24273;SDS011;12392;42.678;23.380;2024-03-17T09:06:57;12.93;;;9.15;;
24273;SDS011;12392;42.678;23.380;2024-03-17T09:09:23;14.07;;;9.40;;
24273;SDS011;12392;42.678;23.380;2024-03-17T09:11:49;12.90;;;8.88;;
24273;SDS011;12392;42.678;23.380;2024-03-17T09:14:16;16.58;;;9.63;;
24273;SDS011;12392;42.678;23.380;2024-03-17T09:16:41;12.80;;;9.48;;
24273;SDS011;12392;42.678;23.380;2024-03-17T09:19:07;14.00;;;9.73;;
24273;SDS011;12392;42.678;23.380;2024-03-17T09:21:34;14.80;;;10.13;;
24273;SDS011;12392;42.678;23.380;2024-03-17T09:23:59;14.70;;;10.10;;
24273;SDS011;12392;42.678;23.380;2024-03-17T09:26:25;12.80;;;9.13;;
24273;SDS011;12392;42.678;23.380;2024-03-17T09:28:51;13.95;;;9.75;;
24273;SDS011;12392;42.678;23.380;2024-03-17T09:31:16;10.73;;;8.70;;
24273;SDS011;12392;42.678;23.380;2024-03-17T09:33:42;10.85;;;8.60;;
24273;SDS011;12392;42.678;23.380;2024-03-17T09:36:08;12.65;;;8.88;;
24273;SDS011;12392;42.678;23.380;2024-03-17T09:38:36;10.85;;;7.82;;
24273;SDS011;12392;42.678;23.380;2024-03-17T09:41:02;12.15;;;8.65;;
24273;SDS011;12392;42.678;23.380;2024-03-17T09:43:37;14.40;;;9.00;;
24273;SDS011;12392;42.678;23.380;2024-03-17T09:46:03;11.18;;;8.43;;
24273;SDS011;12392;42.678;23.380;2024-03-17T09:48:30;11.23;;;7.93;;
24273;SDS011;12392;42.678;23.380;2024-03-17T09:50:56;13.82;;;8.10;;
24273;SDS011;12392;42.678;23.380;2024-03-17T09:55:49;12.15;;;8.95;;
24273;SDS011;12392;42.678;23.380;2024-03-17T09:58:15;12.60;;;7.95;;
24273;SDS011;12392;42.678;23.380;2024-03-17T10:00:42;10.77;;;7.63;;
24273;SDS011;12392;42.678;23.380;2024-03-17T10:03:08;12.13;;;8.65;;
24273;SDS011;12392;42.678;23.380;2024-03-17T10:05:34;10.55;;;7.18;;
24273;SDS011;12392;42.678;23.380;2024-03-17T10:08:00;12.90;;;7.70;;
24273;SDS011;12392;42.678;23.380;2024-03-17T10:10:26;11.07;;;7.32;;
24273;SDS011;12392;42.678;23.380;2024-03-17T10:12:52;12.18;;;6.45;;
24273;SDS011;12392;42.678;23.380;2024-03-17T10:15:18;9.32;;;7.38;;
24273;SDS011;12392;42.678;23.380;2024-03-17T10:17:45;13.52;;;7.32;;
24273;SDS011;12392;42.678;23.380;2024-03-17T10:20:15;10.82;;;7.22;;
24273;SDS011;12392;42.678;23.380;2024-03-17T10:23:04;15.00;;;7.20;;
24273;SDS011;12392;42.678;23.380;2024-03-17T10:25:34;11.30;;;6.10;;
24273;SDS011;12392;42.678;23.380;2024-03-17T10:28:04;8.85;;;6.25;;
24273;SDS011;12392;42.678;23.380;2024-03-17T10:30:38;11.27;;;5.75;;
24273;SDS011;12392;42.678;23.380;2024-03-17T10:33:05;7.75;;;5.65;;
24273;SDS011;12392;42.678;23.380;2024-03-17T10:38:02;9.27;;;5.53;;
24273;SDS011;12392;42.678;23.380;2024-03-17T10:40:29;7.95;;;4.85;;
24273;SDS011;12392;42.678;23.380;2024-03-17T10:42:56;8.18;;;5.55;;
24273;SDS011;12392;42.678;23.380;2024-03-17T10:45:23;7.60;;;4.45;;
24273;SDS011;12392;42.678;23.380;2024-03-17T10:47:50;6.50;;;3.92;;
24273;SDS011;12392;42.678;23.380;2024-03-17T10:50:20;4.50;;;3.63;;
24273;SDS011;12392;42.678;23.380;2024-03-17T10:52:47;5.60;;;4.00;;
24273;SDS011;12392;42.678;23.380;2024-03-17T10:56:00;6.65;;;4.30;;
24273;SDS011;12392;42.678;23.380;2024-03-17T10:58:31;6.25;;;3.60;;
24273;SDS011;12392;42.678;23.380;2024-03-17T11:01:02;4.18;;;3.45;;
24273;SDS011;12392;42.678;23.380;2024-03-17T11:03:31;8.02;;;2.55;;
24273;SDS011;12392;42.678;23.380;2024-03-17T11:05:58;4.15;;;2.40;;
24273;SDS011;12392;42.678;23.380;2024-03-17T11:08:25;4.07;;;2.72;;
24273;SDS011;12392;42.678;23.380;2024-03-17T11:10:52;9.98;;;3.10;;
24273;SDS011;12392;42.678;23.380;2024-03-17T11:13:29;10.90;;;3.10;;
24273;SDS011;12392;42.678;23.380;2024-03-17T11:15:56;5.60;;;3.70;;
24273;SDS011;12392;42.678;23.380;2024-03-17T11:18:31;4.05;;;3.40;;
24273;SDS011;12392;42.678;23.380;2024-03-17T11:23:33;7.15;;;4.20;;
24273;SDS011;12392;42.678;23.380;2024-03-17T11:26:02;5.50;;;4.30;;
24273;SDS011;12392;42.678;23.380;2024-03-17T11:34:04;10.82;;;5.68;;
24273;SDS011;12392;42.678;23.380;2024-03-17T11:36:36;8.17;;;4.93;;
24273;SDS011;12392;42.678;23.380;2024-03-17T11:39:06;7.30;;;5.00;;
24273;SDS011;12392;42.678;23.380;2024-03-17T11:49:42;5.37;;;4.30;;
24273;SDS011;12392;42.678;23.380;2024-03-17T11:52:10;9.73;;;5.28;;
24273;SDS011;12392;42.678;23.380;2024-03-17T11:54:38;5.35;;;4.20;;
24273;SDS011;12392;42.678;23.380;2024-03-17T11:57:14;7.20;;;4.70;;
24273;SDS011;12392;42.678;23.380;2024-03-17T11:59:49;5.65;;;4.35;;
24273;SDS011;12392;42.678;23.380;2024-03-17T12:02:31;5.57;;;3.50;;
24273;SDS011;12392;42.678;23.380;2024-03-17T12:04:58;5.82;;;3.75;;
24273;SDS011;12392;42.678;23.380;2024-03-17T12:07:25;4.88;;;3.20;;
24273;SDS011;12392;42.678;23.380;2024-03-17T12:09:53;4.32;;;3.67;;
24273;SDS011;12392;42.678;23.380;2024-03-17T12:12:24;5.32;;;3.67;;
24273;SDS011;12392;42.678;23.380;2024-03-17T12:14:56;6.70;;;4.15;;
24273;SDS011;12392;42.678;23.380;2024-03-17T12:17:22;5.93;;;3.92;;
24273;SDS011;12392;42.678;23.380;2024-03-17T12:19:49;5.07;;;3.80;;
24273;SDS011;12392;42.678;23.380;2024-03-17T12:22:19;5.22;;;4.00;;
24273;SDS011;12392;42.678;23.380;2024-03-17T12:24:49;4.57;;;3.85;;
24273;SDS011;12392;42.678;23.380;2024-03-17T12:27:19;8.32;;;4.53;;
24273;SDS011;12392;42.678;23.380;2024-03-17T12:29:46;4.70;;;4.20;;
24273;SDS011;12392;42.678;23.380;2024-03-17T12:32:17;5.63;;;3.85;;
24273;SDS011;12392;42.678;23.380;2024-03-17T12:34:54;4.88;;;3.88;;
24273;SDS011;12392;42.678;23.380;2024-03-17T12:37:26;7.50;;;4.28;;
24273;SDS011;12392;42.678;23.380;2024-03-17T12:40:01;6.97;;;4.28;;
24273;SDS011;12392;42.678;23.380;2024-03-17T12:42:28;7.43;;;4.13;;
24273;SDS011;12392;42.678;23.380;2024-03-17T12:47:24;14.77;;;4.55;;
24273;SDS011;12392;42.678;23.380;2024-03-17T12:49:51;6.25;;;4.68;;
24273;SDS011;12392;42.678;23.380;2024-03-17T12:52:18;5.35;;;4.07;;
24273;SDS011;12392;42.678;23.380;2024-03-17T12:54:45;5.65;;;4.78;;
24273;SDS011;12392;42.678;23.380;2024-03-17T12:57:52;6.65;;;5.00;;
24273;SDS011;12392;42.678;23.380;2024-03-17T13:00:59;6.45;;;4.97;;
24273;SDS011;12392;42.678;23.380;2024-03-17T13:05:56;8.00;;;5.05;;
24273;SDS011;12392;42.678;23.380;2024-03-17T13:08:22;9.93;;;5.18;;
24273;SDS011;12392;42.678;23.380;2024-03-17T13:10:48;7.03;;;5.15;;
24273;SDS011;12392;42.678;23.380;2024-03-17T13:13:13;8.23;;;6.00;;
24273;SDS011;12392;42.678;23.380;2024-03-17T13:15:41;8.25;;;5.53;;
24273;SDS011;12392;42.678;23.380;2024-03-17T13:18:08;10.35;;;5.03;;
24273;SDS011;12392;42.678;23.380;2024-03-17T13:20:34;11.02;;;5.30;;
24273;SDS011;12392;42.678;23.380;2024-03-17T13:23:00;9.95;;;5.13;;
24273;SDS011;12392;42.678;23.380;2024-03-17T13:25:27;10.57;;;5.30;;
24273;SDS011;12392;42.678;23.380;2024-03-17T13:28:01;10.00;;;6.10;;
24273;SDS011;12392;42.678;23.380;2024-03-17T13:30:28;7.40;;;5.70;;
24273;SDS011;12392;42.678;23.380;2024-03-17T13:32:55;9.27;;;6.05;;
24273;SDS011;12392;42.678;23.380;2024-03-17T13:35:23;9.27;;;5.65;;
24273;SDS011;12392;42.678;23.380;2024-03-17T13:37:52;8.18;;;5.85;;
24273;SDS011;12392;42.678;23.380;2024-03-17T13:40:19;5.90;;;5.30;;
24273;SDS011;12392;42.678;23.380;2024-03-17T13:42:45;8.07;;;5.68;;
24273;SDS011;12392;42.678;23.380;2024-03-17T13:45:13;8.40;;;6.35;;
24273;SDS011;12392;42.678;23.380;2024-03-17T13:47:39;10.82;;;5.68;;
24273;SDS011;12392;42.678;23.380;2024-03-17T13:50:05;8.70;;;6.05;;
24273;SDS011;12392;42.678;23.380;2024-03-17T13:52:36;7.75;;;5.35;;
24273;SDS011;12392;42.678;23.380;2024-03-17T13:55:02;8.13;;;6.13;;
24273;SDS011;12392;42.678;23.380;2024-03-17T13:57:31;10.10;;;6.47;;
24273;SDS011;12392;42.678;23.380;2024-03-17T14:00:00;10.20;;;6.97;;
24273;SDS011;12392;42.678;23.380;2024-03-17T14:02:26;7.65;;;6.15;;
24273;SDS011;12392;42.678;23.380;2024-03-17T14:04:51;6.72;;;5.65;;
24273;SDS011;12392;42.678;23.380;2024-03-17T14:07:17;8.18;;;6.07;;
24273;SDS011;12392;42.678;23.380;2024-03-17T14:09:42;12.07;;;6.60;;
24273;SDS011;12392;42.678;23.380;2024-03-17T14:12:08;8.52;;;6.35;;
24273;SDS011;12392;42.678;23.380;2024-03-17T14:14:34;9.55;;;7.07;;
24273;SDS011;12392;42.678;23.380;2024-03-17T14:16:59;10.52;;;7.22;;
24273;SDS011;12392;42.678;23.380;2024-03-17T14:19:25;9.00;;;6.65;;
24273;SDS011;12392;42.678;23.380;2024-03-17T14:21:51;8.70;;;6.38;;
24273;SDS011;12392;42.678;23.380;2024-03-17T14:24:17;10.13;;;6.85;;
24273;SDS011;12392;42.678;23.380;2024-03-17T14:26:43;9.80;;;6.93;;
24273;SDS011;12392;42.678;23.380;2024-03-17T14:29:09;10.02;;;6.97;;
24273;SDS011;12392;42.678;23.380;2024-03-17T14:31:34;10.85;;;6.43;;
24273;SDS011;12392;42.678;23.380;2024-03-17T14:34:04;8.88;;;6.13;;
24273;SDS011;12392;42.678;23.380;2024-03-17T14:36:31;10.80;;;6.60;;
24273;SDS011;12392;42.678;23.380;2024-03-17T14:38:58;9.80;;;6.82;;
24273;SDS011;12392;42.678;23.380;2024-03-17T14:41:24;8.68;;;6.22;;
24273;SDS011;12392;42.678;23.380;2024-03-17T14:43:52;10.32;;;6.90;;